Zhen Zhu Hai — VROT8 — position and weather

sailwx.info

Track history (hours):
 
Tides and Currents Weather Stations Pressure Air Temp Water Temp Dewpoint Dewpoint Depression Visibility Wind Speed Wind Dir Waves Ship Positions

Zhen Zhu Hai

Last reported at 2017-Oct-25 08:58 UTC. Time now 2017-Nov-22 16:44 UTC.
Position N 37°44' E 024°18'.
Warning: this ship's position is 28 days out of date.

Length 180 m; draft 9 m.

Type: Cargo ship. MMSI: 477524900.

Date/timePositionNaut miles runAvg speedWind from/ knotsBaromVisibWave heightAir tempDewpointWater temp
2017-Oct-25 08:58N 37°44' E 024°18'1012.9
2017-Oct-25 08:10N 37°36' E 024°10'213.0
2017-Oct-25 08:00N 37°34' E 024°09'45911.7
2017-Oct-23 16:45N 36°36' E 014°38'313.2
2017-Oct-23 16:30N 36°37' E 014°34'613.0
2017-Oct-23 16:00N 36°38' E 014°26'713.6
2017-Oct-23 15:30N 36°40' E 014°18'713.2
2017-Oct-23 15:00N 36°42' E 014°10'713.5
2017-Oct-23 14:30N 36°44' E 014°02'713.6
2017-Oct-23 14:00N 36°45' E 013°54'713.7
2017-Oct-23 13:30N 36°47' E 013°46'613.0
2017-Oct-23 13:00N 36°49' E 013°38'56413.2
2017-Oct-21 18:19N 36°52' E 001°54'413.6
2017-Oct-21 18:01N 36°51' E 001°48'714.1
2017-Oct-21 17:30N 36°49' E 001°40'713.8
2017-Oct-21 17:00N 36°48' E 001°31'713.4
2017-Oct-21 16:30N 36°47' E 001°23'713.4
2017-Oct-21 16:00N 36°46' E 001°15'713.6
2017-Oct-21 15:30N 36°45' E 001°06'713.7
2017-Oct-21 15:00N 36°44' E 000°58'1413.9
2017-Oct-21 14:00N 36°42' E 000°41'714.2
2017-Oct-21 13:30N 36°41' E 000°32'714.5
2017-Oct-21 13:00N 36°40' E 000°23'714.6
2017-Oct-21 12:30N 36°39' E 000°14'714.1
2017-Oct-21 12:00N 36°38' E 000°05'2514.2
2017-Oct-21 10:14N 36°35' W 000°26'314.2
2017-Oct-21 10:00N 36°34' W 000°30'814.0
2017-Oct-21 09:27N 36°33' W 000°39'22514.2
2017-Oct-20 17:39N 36°00' W 005°15'215.7
2017-Oct-20 17:30N 35°60' W 005°17'1115.8
2017-Oct-20 16:50N 35°57' W 005°30'15213.5
2017-Oct-20 05:33N 36°25' W 008°36'9712.0
2017-Oct-19 21:28N 37°42' W 009°48'1513.2
2017-Oct-19 20:20N 37°57' W 009°53'713.5
2017-Oct-19 19:49N 38°03' W 009°55'413.9
2017-Oct-19 19:30N 38°08' W 009°56'713.9
2017-Oct-19 18:59N 38°15' W 009°58'613.1
2017-Oct-19 18:30N 38°21' W 009°60'612.7
2017-Oct-19 18:00N 38°27' W 010°02'612.7
2017-Oct-19 17:31N 38°33' W 010°03'612.9
2017-Oct-19 17:00N 38°39' W 010°05'612.4
2017-Oct-19 16:30N 38°46' W 010°06'612.7
2017-Oct-19 16:00N 38°52' W 010°06'713.2
2017-Oct-19 15:30N 38°59' W 010°06'613.0
2017-Oct-19 15:00N 39°05' W 010°06'713.3
2017-Oct-19 14:30N 39°12' W 010°06'713.5
2017-Oct-19 14:00N 39°19' W 010°06'713.5
2017-Oct-19 13:29N 39°25' W 010°05'712.9
2017-Oct-19 12:57N 39°32' W 010°05'48512.4
2017-Oct-17 21:57N 47°19' W 007°03'13012.1
2017-Oct-17 11:15N 49°06' W 005°12'611.1
2017-Oct-17 10:44N 49°10' W 005°05'812.1
2017-Oct-17 10:03N 49°14' W 004°54'111.6
2017-Oct-17 09:56N 49°15' W 004°53'712.3
2017-Oct-17 09:21N 49°18' W 004°43'912.3
2017-Oct-17 08:35N 49°23' W 004°30'112.5
2017-Oct-17 08:29N 49°24' W 004°29'612.1
2017-Oct-17 07:59N 49°27' W 004°21'812.2
2017-Oct-17 07:22N 49°31' W 004°11'511.5
2017-Oct-17 06:57N 49°33' W 004°04'610.9
2017-Oct-17 06:23N 49°36' W 003°56'410.3
2017-Oct-17 06:00N 49°38' W 003°51'7 9.5
2017-Oct-17 05:17N 49°41' W 003°42'4 8.2
2017-Oct-17 04:51N 49°43' W 003°37'3 7.5
2017-Oct-17 04:30N 49°44' W 003°34'5 7.8
2017-Oct-17 03:55N 49°47' W 003°27'3 7.0
2017-Oct-17 03:30N 49°48' W 003°24'4 7.1
2017-Oct-17 02:58N 49°50' W 003°18'4 7.7
2017-Oct-17 02:30N 49°52' W 003°14'4 8.4
2017-Oct-17 02:00N 49°54' W 003°08'5 9.2
2017-Oct-17 01:30N 49°56' W 003°02'5 9.2
2017-Oct-17 01:00N 49°58' W 002°55'510.4
2017-Oct-17 00:30N 49°60' W 002°48'611.1
2017-Oct-17 00:00N 50°01' W 002°39'89 9.9
2017-Oct-16 14:57N 50°25' W 000°25'1313.4
2017-Oct-16 14:01N 50°29' W 000°06'714.0
2017-Oct-16 13:31N 50°31' E 000°05'714.1
2017-Oct-16 13:00N 50°33' E 000°15'714.1
2017-Oct-16 12:30N 50°35' E 000°26'713.7
2017-Oct-16 12:01N 50°37' E 000°36'713.5
2017-Oct-16 11:31N 50°42' E 000°44'713.2
2017-Oct-16 11:00N 50°45' E 000°53'612.8
2017-Oct-16 10:30N 50°49' E 001°01'612.3
2017-Oct-16 10:00N 50°53' E 001°08'611.9
2017-Oct-16 09:30N 50°57' E 001°15'611.5
2017-Oct-16 09:00N 51°01' E 001°22'612.4
2017-Oct-16 08:30N 51°05' E 001°30'713.0
2017-Oct-16 08:00N 51°09' E 001°38'713.4
2017-Oct-16 07:30N 51°13' E 001°46'714.0
2017-Oct-16 07:00N 51°20' E 001°51'714.9
2017-Oct-16 06:30N 51°26' E 001°57'815.3
2017-Oct-16 06:00N 51°32' E 002°05'815.0
2017-Oct-16 05:30N 51°37' E 002°14'714.9
2017-Oct-16 05:00N 51°43' E 002°21'1014.8
2017-Oct-16 04:21N 51°50' E 002°32'1013.6
2017-Oct-16 03:36N 51°60' E 002°37'113.9
2017-Oct-16 03:31N 52°01' E 002°37'713.7
2017-Oct-16 03:00N 52°08' E 002°38'2512.8
2017-Oct-16 01:01N 52°31' E 002°58'012.3
2017-Oct-16 01:00N 52°31' E 002°58'712.4
2017-Oct-16 00:28N 52°37' E 003°02'612.3
2017-Oct-16 00:00N 52°42' E 003°06'612.2
2017-Oct-15 23:30N 52°48' E 003°10'612.1
2017-Oct-15 23:00N 52°53' E 003°14'612.3
2017-Oct-15 22:30N 52°59' E 003°17'712.8
2017-Oct-15 21:58N 53°06' E 003°20'613.1
2017-Oct-15 21:29N 53°12' E 003°23'713.6
2017-Oct-15 21:00N 53°18' E 003°26'713.5
2017-Oct-15 20:29N 53°25' E 003°30'913.6
2017-Oct-15 19:48N 53°34' E 003°35'413.7
2017-Oct-15 19:28N 53°38' E 003°37'1812.8
2017-Oct-15 18:04N 53°51' E 003°58'3412.4
2017-Oct-15 15:20N 54°15' E 004°38'512.6
2017-Oct-15 14:57N 54°20' E 004°42'1312.5
2017-Oct-15 13:56N 54°31' E 004°53'1912.5
2017-Oct-15 12:27N 54°47' E 005°08'  
Track history (hours):
 
Tides and Currents Weather Stations Pressure Air Temp Water Temp Dewpoint Dewpoint Depression Visibility Wind Speed Wind Dir Waves Ship Positions

Zhen Zhu Hai

Last reported at 2017-Oct-25 08:58 UTC. Time now 2017-Nov-22 16:44 UTC.
Position N 37°44' E 024°18'.
Warning: this ship's position is 28 days out of date.

Length 180 m; draft 9 m.

Type: Cargo ship. MMSI: 477524900.

Date/timePositionNaut miles runAvg speedWind from/ knotsBaromVisibWave heightAir tempDewpointWater temp
2017-Oct-25 08:58N 37°44' E 024°18'1012.9
2017-Oct-25 08:10N 37°36' E 024°10'213.0
2017-Oct-25 08:00N 37°34' E 024°09'45911.7
2017-Oct-23 16:45N 36°36' E 014°38'313.2
2017-Oct-23 16:30N 36°37' E 014°34'613.0
2017-Oct-23 16:00N 36°38' E 014°26'713.6
2017-Oct-23 15:30N 36°40' E 014°18'713.2
2017-Oct-23 15:00N 36°42' E 014°10'713.5
2017-Oct-23 14:30N 36°44' E 014°02'713.6
2017-Oct-23 14:00N 36°45' E 013°54'713.7
2017-Oct-23 13:30N 36°47' E 013°46'613.0
2017-Oct-23 13:00N 36°49' E 013°38'56413.2
2017-Oct-21 18:19N 36°52' E 001°54'413.6
2017-Oct-21 18:01N 36°51' E 001°48'714.1
2017-Oct-21 17:30N 36°49' E 001°40'713.8
2017-Oct-21 17:00N 36°48' E 001°31'713.4
2017-Oct-21 16:30N 36°47' E 001°23'713.4
2017-Oct-21 16:00N 36°46' E 001°15'713.6
2017-Oct-21 15:30N 36°45' E 001°06'713.7
2017-Oct-21 15:00N 36°44' E 000°58'1413.9
2017-Oct-21 14:00N 36°42' E 000°41'714.2
2017-Oct-21 13:30N 36°41' E 000°32'714.5
2017-Oct-21 13:00N 36°40' E 000°23'714.6
2017-Oct-21 12:30N 36°39' E 000°14'714.1
2017-Oct-21 12:00N 36°38' E 000°05'2514.2
2017-Oct-21 10:14N 36°35' W 000°26'314.2
2017-Oct-21 10:00N 36°34' W 000°30'814.0
2017-Oct-21 09:27N 36°33' W 000°39'22514.2
2017-Oct-20 17:39N 36°00' W 005°15'215.7
2017-Oct-20 17:30N 35°60' W 005°17'1115.8
2017-Oct-20 16:50N 35°57' W 005°30'15213.5
2017-Oct-20 05:33N 36°25' W 008°36'9712.0
2017-Oct-19 21:28N 37°42' W 009°48'1513.2
2017-Oct-19 20:20N 37°57' W 009°53'713.5
2017-Oct-19 19:49N 38°03' W 009°55'413.9
2017-Oct-19 19:30N 38°08' W 009°56'713.9
2017-Oct-19 18:59N 38°15' W 009°58'613.1
2017-Oct-19 18:30N 38°21' W 009°60'612.7
2017-Oct-19 18:00N 38°27' W 010°02'612.7
2017-Oct-19 17:31N 38°33' W 010°03'612.9
2017-Oct-19 17:00N 38°39' W 010°05'612.4
2017-Oct-19 16:30N 38°46' W 010°06'612.7
2017-Oct-19 16:00N 38°52' W 010°06'713.2
2017-Oct-19 15:30N 38°59' W 010°06'613.0
2017-Oct-19 15:00N 39°05' W 010°06'713.3
2017-Oct-19 14:30N 39°12' W 010°06'713.5
2017-Oct-19 14:00N 39°19' W 010°06'713.5
2017-Oct-19 13:29N 39°25' W 010°05'712.9
2017-Oct-19 12:57N 39°32' W 010°05'48512.4
2017-Oct-17 21:57N 47°19' W 007°03'13012.1
2017-Oct-17 11:15N 49°06' W 005°12'611.1
2017-Oct-17 10:44N 49°10' W 005°05'812.1
2017-Oct-17 10:03N 49°14' W 004°54'111.6
2017-Oct-17 09:56N 49°15' W 004°53'712.3
2017-Oct-17 09:21N 49°18' W 004°43'912.3
2017-Oct-17 08:35N 49°23' W 004°30'112.5
2017-Oct-17 08:29N 49°24' W 004°29'612.1
2017-Oct-17 07:59N 49°27' W 004°21'812.2
2017-Oct-17 07:22N 49°31' W 004°11'511.5
2017-Oct-17 06:57N 49°33' W 004°04'610.9
2017-Oct-17 06:23N 49°36' W 003°56'410.3
2017-Oct-17 06:00N 49°38' W 003°51'7 9.5
2017-Oct-17 05:17N 49°41' W 003°42'4 8.2
2017-Oct-17 04:51N 49°43' W 003°37'3 7.5
2017-Oct-17 04:30N 49°44' W 003°34'5 7.8
2017-Oct-17 03:55N 49°47' W 003°27'3 7.0
2017-Oct-17 03:30N 49°48' W 003°24'4 7.1
2017-Oct-17 02:58N 49°50' W 003°18'4 7.7
2017-Oct-17 02:30N 49°52' W 003°14'4 8.4
2017-Oct-17 02:00N 49°54' W 003°08'5 9.2
2017-Oct-17 01:30N 49°56' W 003°02'5 9.2
2017-Oct-17 01:00N 49°58' W 002°55'510.4
2017-Oct-17 00:30N 49°60' W 002°48'611.1
2017-Oct-17 00:00N 50°01' W 002°39'89 9.9
2017-Oct-16 14:57N 50°25' W 000°25'1313.4
2017-Oct-16 14:01N 50°29' W 000°06'714.0
2017-Oct-16 13:31N 50°31' E 000°05'714.1
2017-Oct-16 13:00N 50°33' E 000°15'714.1
2017-Oct-16 12:30N 50°35' E 000°26'713.7
2017-Oct-16 12:01N 50°37' E 000°36'713.5
2017-Oct-16 11:31N 50°42' E 000°44'713.2
2017-Oct-16 11:00N 50°45' E 000°53'612.8
2017-Oct-16 10:30N 50°49' E 001°01'612.3
2017-Oct-16 10:00N 50°53' E 001°08'611.9
2017-Oct-16 09:30N 50°57' E 001°15'611.5
2017-Oct-16 09:00N 51°01' E 001°22'612.4
2017-Oct-16 08:30N 51°05' E 001°30'713.0
2017-Oct-16 08:00N 51°09' E 001°38'713.4
2017-Oct-16 07:30N 51°13' E 001°46'714.0
2017-Oct-16 07:00N 51°20' E 001°51'714.9
2017-Oct-16 06:30N 51°26' E 001°57'815.3
2017-Oct-16 06:00N 51°32' E 002°05'815.0
2017-Oct-16 05:30N 51°37' E 002°14'714.9
2017-Oct-16 05:00N 51°43' E 002°21'1014.8
2017-Oct-16 04:21N 51°50' E 002°32'1013.6
2017-Oct-16 03:36N 51°60' E 002°37'113.9
2017-Oct-16 03:31N 52°01' E 002°37'713.7
2017-Oct-16 03:00N 52°08' E 002°38'2512.8
2017-Oct-16 01:01N 52°31' E 002°58'012.3
2017-Oct-16 01:00N 52°31' E 002°58'712.4
2017-Oct-16 00:28N 52°37' E 003°02'612.3
2017-Oct-16 00:00N 52°42' E 003°06'612.2
2017-Oct-15 23:30N 52°48' E 003°10'612.1
2017-Oct-15 23:00N 52°53' E 003°14'612.3
2017-Oct-15 22:30N 52°59' E 003°17'712.8
2017-Oct-15 21:58N 53°06' E 003°20'613.1
2017-Oct-15 21:29N 53°12' E 003°23'713.6
2017-Oct-15 21:00N 53°18' E 003°26'713.5
2017-Oct-15 20:29N 53°25' E 003°30'913.6
2017-Oct-15 19:48N 53°34' E 003°35'413.7
2017-Oct-15 19:28N 53°38' E 003°37'1812.8
2017-Oct-15 18:04N 53°51' E 003°58'3412.4
2017-Oct-15 15:20N 54°15' E 004°38'512.6
2017-Oct-15 14:57N 54°20' E 004°42'1312.5
2017-Oct-15 13:56N 54°31' E 004°53'1912.5
2017-Oct-15 12:27N 54°47' E 005°08'  

Dump ship's entire track history